createdAt,value
2022-09-27T00:01:13.902Z,98816.59
2022-09-27T00:03:42.454Z,98816.09
2022-09-27T00:06:14.686Z,98816.00
2022-09-27T00:08:43.223Z,98812.22
2022-09-27T00:11:18.788Z,98801.97
2022-09-27T00:13:46.797Z,98811.06
2022-09-27T00:16:16.078Z,98809.16
2022-09-27T00:18:44.163Z,98800.09
2022-09-27T00:21:14.247Z,98806.91
2022-09-27T00:23:42.317Z,98804.25
2022-09-27T00:26:15.270Z,98802.50
2022-09-27T00:28:43.710Z,98796.41
2022-09-27T00:31:20.958Z,98798.81
2022-09-27T00:33:50.354Z,98799.75
2022-09-27T00:36:19.411Z,98799.75
2022-09-27T00:38:47.728Z,98797.84
2022-09-27T00:41:17.642Z,98798.72
2022-09-27T00:43:49.346Z,98797.69
2022-09-27T00:46:26.690Z,98797.50
2022-09-27T00:49:04.945Z,98795.03
2022-09-27T00:51:35.984Z,98786.72
2022-09-27T00:54:04.502Z,98787.22
2022-09-27T00:56:33.391Z,98780.38
2022-09-27T00:59:07.903Z,98773.84
2022-09-27T01:01:37.363Z,98774.53
2022-09-27T01:04:08.838Z,98774.34
2022-09-27T01:06:37.879Z,98769.50
2022-09-27T01:09:07.956Z,98773.69
2022-09-27T01:11:46.057Z,98769.41
2022-09-27T01:14:39.529Z,98769.13
2022-09-27T01:17:23.703Z,98769.13
2022-09-27T01:20:15.895Z,98766.66
2022-09-27T01:22:55.866Z,98769.22
2022-09-27T01:25:44.996Z,98766.16
2022-09-27T01:28:24.229Z,98766.34
2022-09-27T01:30:57.166Z,98768.06
2022-09-27T01:33:41.371Z,98765.56
2022-09-27T01:36:19.035Z,98759.31
2022-09-27T01:38:59.838Z,98751.16
2022-09-27T01:41:39.489Z,98752.88
2022-09-27T01:44:14.856Z,98754.19
2022-09-27T01:46:54.063Z,98754.03
2022-09-27T01:49:55.053Z,98750.22
2022-09-27T01:52:28.447Z,98749.19
2022-09-27T01:55:00.270Z,98750.91
2022-09-27T01:58:12.802Z,98750.03
2022-09-27T02:00:45.730Z,98747.97
2022-09-27T02:03:18.962Z,98744.63
2022-09-27T02:06:13.838Z,98746.25
2022-09-27T02:09:13.902Z,98749.41
2022-09-27T02:11:58.253Z,98747.56
2022-09-27T02:14:34.911Z,98742.25
2022-09-27T02:17:13.097Z,98743.78
2022-09-27T02:19:53.398Z,98732.28
2022-09-27T02:22:35.019Z,98731.84
2022-09-27T02:25:11.610Z,98738.47
2022-09-27T02:27:49.593Z,98737.69
2022-09-27T02:30:20.301Z,98736.38
2022-09-27T02:32:53.982Z,98738.81
2022-09-27T02:35:27.720Z,98735.03
2022-09-27T02:37:56.597Z,98724.41
2022-09-27T02:40:26.914Z,98723.88
2022-09-27T02:42:55.054Z,98729.00
2022-09-27T02:45:23.701Z,98729.19
2022-09-27T02:48:04.617Z,98724.72
2022-09-27T02:51:10.946Z,98722.44
2022-09-27T02:53:53.211Z,98727.28
2022-09-27T02:57:00.607Z,98726.44
2022-09-27T02:59:53.889Z,98724.53
2022-09-27T03:02:34.643Z,98725.50
2022-09-27T03:05:37.935Z,98723.69
2022-09-27T03:08:08.590Z,98722.66
2022-09-27T03:10:36.447Z,98719.72
2022-09-27T03:13:04.878Z,98722.28
2022-09-27T03:15:33.242Z,98725.81
2022-09-27T03:18:01.249Z,98724.84
2022-09-27T03:20:47.803Z,98721.72
2022-09-27T03:23:19.387Z,98721.63
2022-09-27T03:25:47.358Z,98730.53
2022-09-27T03:28:15.535Z,98723.88
2022-09-27T03:30:46.406Z,98720.09
2022-09-27T03:33:22.148Z,98727.69
2022-09-27T03:35:54.900Z,98721.34
2022-09-27T03:38:24.071Z,98724.84
2022-09-27T03:40:52.916Z,98724.00
2022-09-27T03:43:20.836Z,98720.34
2022-09-27T03:45:48.808Z,98720.28
2022-09-27T03:48:18.309Z,98722.16
2022-09-27T03:50:46.184Z,98713.25
2022-09-27T03:53:14.054Z,98722.16
2022-09-27T03:55:46.058Z,98713.06
2022-09-27T03:58:13.890Z,98708.59
2022-09-27T04:00:43.308Z,98709.47
2022-09-27T04:03:12.071Z,98713.25
2022-09-27T04:06:00.347Z,98721.13
2022-09-27T04:08:36.560Z,98720.13
2022-09-27T04:11:07.887Z,98720.00
2022-09-27T04:13:36.373Z,98729.28
2022-09-27T04:16:04.364Z,98726.88
2022-09-27T04:18:35.184Z,98729.13
2022-09-27T04:21:12.001Z,98729.31
2022-09-27T04:23:46.702Z,98736.94
2022-09-27T04:26:21.028Z,98740.88
2022-09-27T04:28:54.794Z,98731.22
2022-09-27T04:31:29.996Z,98734.69
2022-09-27T04:34:45.957Z,98733.44
2022-09-27T04:37:14.540Z,98744.03
2022-09-27T04:39:46.489Z,98732.56
2022-09-27T04:42:16.062Z,98741.31
2022-09-27T04:44:44.231Z,98746.16
2022-09-27T04:47:13.225Z,98746.94
2022-09-27T04:49:42.807Z,98750.25
2022-09-27T04:52:10.783Z,98746.25
2022-09-27T04:54:39.153Z,98749.81
2022-09-27T04:57:14.474Z,98752.84
2022-09-27T04:59:44.786Z,98756.09
2022-09-27T05:02:15.168Z,98760.28
2022-09-27T05:05:00.869Z,98758.81
2022-09-27T05:07:35.875Z,98761.41
2022-09-27T05:10:10.215Z,98764.84
2022-09-27T05:12:38.388Z,98769.69
2022-09-27T05:15:09.255Z,98770.38
2022-09-27T05:18:03.338Z,98770.28
2022-09-27T05:20:49.914Z,98782.19
2022-09-27T05:23:27.869Z,98785.41
2022-09-27T05:25:56.478Z,98781.00
2022-09-27T05:28:25.124Z,98780.91
2022-09-27T05:30:54.313Z,98786.28
2022-09-27T05:33:22.999Z,98792.94
2022-09-27T05:35:54.790Z,98787.13
2022-09-27T05:38:26.246Z,98789.63
2022-09-27T05:40:57.595Z,98797.44
2022-09-27T05:43:26.502Z,98784.66
2022-09-27T05:45:56.398Z,98787.56
2022-09-27T05:48:24.599Z,98800.50
2022-09-27T05:51:23.066Z,98798.97
2022-09-27T05:53:52.115Z,98790.03
2022-09-27T05:56:26.909Z,98794.31
2022-09-27T05:59:10.206Z,98801.25
2022-09-27T06:02:05.513Z,98797.06
2022-09-27T06:04:52.706Z,98802.88
2022-09-27T06:07:40.652Z,98803.91
2022-09-27T06:10:15.697Z,98802.03
2022-09-27T06:12:43.691Z,98800.84
2022-09-27T06:15:27.889Z,98802.59
2022-09-27T06:17:57.140Z,98814.00
2022-09-27T06:20:25.045Z,98806.38
2022-09-27T06:22:54.050Z,98817.78
2022-09-27T06:25:22.667Z,98809.03
2022-09-27T06:28:02.232Z,98813.13
2022-09-27T06:30:30.990Z,98815.03
2022-09-27T06:33:03.669Z,98823.09
2022-09-27T06:35:42.935Z,98823.00
2022-09-27T06:38:13.502Z,98822.47
2022-09-27T06:40:49.631Z,98835.84
2022-09-27T06:43:34.087Z,98828.66
2022-09-27T06:46:15.536Z,98837.63
2022-09-27T06:48:57.602Z,98835.75
2022-09-27T06:51:26.055Z,98841.47
2022-09-27T06:53:54.567Z,98844.31
2022-09-27T06:56:22.360Z,98844.47
2022-09-27T06:59:10.830Z,98846.69
2022-09-27T07:02:04.920Z,98846.00
2022-09-27T07:04:54.721Z,98850.38
2022-09-27T07:07:44.069Z,98851.16
2022-09-27T07:10:12.524Z,98854.06
2022-09-27T07:12:41.544Z,98864.66
2022-09-27T07:15:11.298Z,98859.03
2022-09-27T07:17:39.440Z,98866.28
2022-09-27T07:20:09.846Z,98862.63
2022-09-27T07:22:42.018Z,98876.72
2022-09-27T07:25:11.013Z,98870.91
2022-09-27T07:27:41.587Z,98877.31
2022-09-27T07:30:11.978Z,98879.06
2022-09-27T07:32:40.025Z,98890.94
2022-09-27T07:35:14.499Z,98885.38
2022-09-27T07:37:43.433Z,98886.94
2022-09-27T07:40:12.268Z,98888.97
2022-09-27T07:42:41.184Z,98896.53
2022-09-27T07:45:11.301Z,98893.69
2022-09-27T07:47:50.558Z,98890.94
2022-09-27T07:50:26.423Z,98897.59
2022-09-27T07:53:00.106Z,98903.88
2022-09-27T07:55:52.982Z,98904.63
2022-09-27T07:58:23.789Z,98912.53
2022-09-27T08:00:54.684Z,98921.00
2022-09-27T08:03:22.847Z,98921.53
2022-09-27T08:05:52.980Z,98925.97
2022-09-27T08:08:21.572Z,98929.41
2022-09-27T08:10:51.320Z,98928.09
2022-09-27T08:13:20.948Z,98941.06
2022-09-27T08:15:52.617Z,98934.53
2022-09-27T08:18:24.210Z,98934.03
2022-09-27T08:20:58.784Z,98943.94
2022-09-27T08:23:49.264Z,98940.88
2022-09-27T08:26:28.933Z,98941.19
2022-09-27T08:29:04.357Z,98956.50
2022-09-27T08:31:38.738Z,98959.69
2022-09-27T08:34:08.421Z,98971.56
2022-09-27T08:36:37.673Z,98968.84
2022-09-27T08:39:06.150Z,98961.38
2022-09-27T08:41:48.826Z,98972.38
2022-09-27T08:44:28.991Z,98976.31
2022-09-27T08:47:12.810Z,98980.59
2022-09-27T08:49:44.619Z,98972.22
2022-09-27T08:52:21.318Z,98988.16
2022-09-27T08:54:51.622Z,98977.38
2022-09-27T08:57:19.513Z,98980.34
2022-09-27T08:59:55.258Z,98979.16
2022-09-27T09:02:26.105Z,98988.06
2022-09-27T09:04:59.552Z,98982.56
2022-09-27T09:07:41.835Z,98989.09
2022-09-27T09:10:47.721Z,98991.69
2022-09-27T09:13:27.676Z,98988.31
2022-09-27T09:16:11.543Z,98988.22
2022-09-27T09:19:01.670Z,98985.94
2022-09-27T09:21:57.882Z,98997.19
2022-09-27T09:24:38.365Z,98986.44
2022-09-27T09:27:17.764Z,98983.78
2022-09-27T09:30:03.035Z,98987.31
2022-09-27T09:32:45.610Z,98990.69
2022-09-27T09:35:18.376Z,98985.72
2022-09-27T09:37:50.241Z,98990.34
2022-09-27T09:40:23.720Z,98987.56
2022-09-27T09:42:57.650Z,98994.59
2022-09-27T09:45:30.324Z,98995.84
2022-09-27T09:48:04.675Z,98990.88
2022-09-27T09:50:40.070Z,98984.78
2022-09-27T09:53:15.954Z,98991.31
2022-09-27T09:55:51.966Z,98995.69
2022-09-27T09:58:24.717Z,98995.44
2022-09-27T10:01:02.556Z,98987.94
2022-09-27T10:03:30.503Z,98986.56
2022-09-27T10:05:58.330Z,98996.56
2022-09-27T10:08:26.545Z,98986.44
2022-09-27T10:11:22.329Z,98987.09
2022-09-27T10:13:57.979Z,98985.00
2022-09-27T10:16:28.834Z,98991.81
2022-09-27T10:19:01.147Z,98990.50
2022-09-27T10:21:31.035Z,99000.50
2022-09-27T10:24:14.955Z,98995.63
2022-09-27T10:27:13.198Z,98996.59
2022-09-27T10:29:42.210Z,98994.88
2022-09-27T10:32:24.618Z,98997.34
2022-09-27T10:35:24.048Z,98995.84
2022-09-27T10:37:53.265Z,98990.88
2022-09-27T10:40:33.767Z,98993.75
2022-09-27T10:43:29.466Z,98998.41
2022-09-27T10:46:14.088Z,99018.00
2022-09-27T10:48:44.606Z,99014.44
2022-09-27T10:54:21.523Z,99013.31
2022-09-27T10:56:57.917Z,99020.16
2022-09-27T10:59:31.379Z,99024.25
2022-09-27T11:02:00.323Z,99016.91
2022-09-27T11:04:39.637Z,99019.69
2022-09-27T11:07:19.991Z,99009.94
2022-09-27T11:10:02.893Z,99008.78
2022-09-27T11:12:35.449Z,98989.75
2022-09-27T11:15:08.676Z,98996.94
2022-09-27T11:17:51.521Z,99002.28
2022-09-27T11:20:26.601Z,99003.50
2022-09-27T11:23:13.896Z,99001.53
2022-09-27T11:25:53.678Z,99006.44
2022-09-27T11:28:37.349Z,99005.31
2022-09-27T11:31:19.969Z,99003.22
2022-09-27T11:34:16.858Z,99011.81
2022-09-27T11:36:59.760Z,99000.41
2022-09-27T11:39:41.320Z,99010.75
2022-09-27T11:42:33.143Z,99019.22
2022-09-27T11:48:18.774Z,99038.81
2022-09-27T11:51:08.298Z,99046.44
2022-09-27T11:53:56.053Z,99049.44
2022-09-27T11:56:36.108Z,99049.13
2022-09-27T11:59:25.027Z,99052.81
2022-09-27T12:02:00.335Z,99055.84
2022-09-27T12:04:58.066Z,99055.94
2022-09-27T12:07:33.917Z,99065.63
2022-09-27T12:10:06.052Z,99067.97
2022-09-27T12:12:38.580Z,99074.97
2022-09-27T12:15:14.082Z,99073.75
2022-09-27T12:17:46.621Z,99066.81
2022-09-27T12:20:22.386Z,99073.84
2022-09-27T12:22:59.947Z,99075.13
2022-09-27T12:26:08.151Z,99076.97
2022-09-27T12:28:41.948Z,99080.13
2022-09-27T12:31:29.458Z,99079.19
2022-09-27T12:34:16.215Z,99080.97
2022-09-27T12:36:52.546Z,99075.28
2022-09-27T12:39:26.774Z,99078.94
2022-09-27T12:42:15.280Z,99077.84
2022-09-27T12:44:50.558Z,99090.13
2022-09-27T12:47:51.270Z,99077.97
2022-09-27T12:50:31.064Z,99080.00
2022-09-27T12:53:05.395Z,99091.00
2022-09-27T12:55:56.439Z,99089.25
2022-09-27T12:58:53.593Z,99093.16
2022-09-27T13:01:37.627Z,99089.06
2022-09-27T13:04:43.680Z,99093.41
2022-09-27T13:07:27.363Z,99089.13
2022-09-27T13:10:31.123Z,99089.56
2022-09-27T13:13:04.523Z,99094.09
2022-09-27T13:15:34.622Z,99093.91
2022-09-27T13:18:06.675Z,99093.41
2022-09-27T13:20:46.382Z,99095.78
2022-09-27T13:23:58.974Z,99094.59
2022-09-27T13:26:48.452Z,99096.38
2022-09-27T13:29:31.773Z,99095.38
2022-09-27T13:32:23.827Z,99098.47
2022-09-27T13:35:19.707Z,99091.91
2022-09-27T13:37:56.781Z,99094.97
2022-09-27T13:40:33.239Z,99093.75
2022-09-27T13:43:54.330Z,99092.81
2022-09-27T13:46:37.186Z,99088.38
2022-09-27T13:49:15.731Z,99090.63
2022-09-27T13:52:05.639Z,99087.91
2022-09-27T13:54:40.076Z,99087.50
2022-09-27T13:57:47.555Z,99091.31
2022-09-27T14:00:22.871Z,99096.94
2022-09-27T14:03:06.048Z,99092.66
2022-09-27T14:05:39.523Z,99084.63
2022-09-27T14:08:16.141Z,99093.19
2022-09-27T14:10:44.991Z,99085.94
2022-09-27T14:13:20.994Z,99085.13
2022-09-27T14:16:02.839Z,99091.97
2022-09-27T14:18:31.314Z,99097.03
2022-09-27T14:21:18.170Z,99097.03
2022-09-27T14:24:29.726Z,99101.41
2022-09-27T14:27:14.071Z,99104.03
2022-09-27T14:29:44.890Z,99099.66
2022-09-27T14:32:18.842Z,99103.44
2022-09-27T14:35:32.706Z,99110.59
2022-09-27T14:38:15.840Z,99121.44
2022-09-27T14:41:00.008Z,99118.22
2022-09-27T14:43:29.137Z,99116.13
2022-09-27T14:46:00.495Z,99122.88
2022-09-27T14:48:32.244Z,99130.94
2022-09-27T14:51:06.154Z,99138.81
2022-09-27T14:53:37.627Z,99151.75
2022-09-27T14:56:07.016Z,99150.59
2022-09-27T14:58:47.323Z,99152.41
2022-09-27T15:01:17.322Z,99151.00
2022-09-27T15:03:48.771Z,99153.31
2022-09-27T15:06:17.548Z,99155.84
2022-09-27T15:08:49.218Z,99154.19
2022-09-27T15:11:19.199Z,99154.75
2022-09-27T15:13:51.248Z,99159.59
2022-09-27T15:16:23.297Z,99151.72
2022-09-27T15:19:03.089Z,99149.13
2022-09-27T15:21:32.764Z,99141.66
2022-09-27T15:24:01.893Z,99144.22
2022-09-27T15:26:39.162Z,99137.91
2022-09-27T15:29:07.586Z,99139.59
2022-09-27T15:31:37.218Z,99137.56
2022-09-27T15:34:06.914Z,99144.44
2022-09-27T15:36:56.116Z,99140.38
2022-09-27T15:39:30.059Z,99146.00
2022-09-27T15:42:03.565Z,99147.88
2022-09-27T15:44:48.523Z,99148.34
2022-09-27T15:47:40.199Z,99148.25
2022-09-27T15:50:35.792Z,99148.25
2022-09-27T15:53:06.741Z,99144.97
2022-09-27T15:55:37.747Z,99155.97
2022-09-27T15:58:08.247Z,99154.09
2022-09-27T16:00:36.917Z,99150.03
2022-09-27T16:03:05.165Z,99157.16
2022-09-27T16:05:33.162Z,99150.59
2022-09-27T16:08:02.658Z,99150.38
2022-09-27T16:10:36.980Z,99155.91
2022-09-27T16:13:04.851Z,99154.66
2022-09-27T16:15:33.274Z,99153.66
2022-09-27T16:18:01.102Z,99155.22
2022-09-27T16:20:29.600Z,99157.69
2022-09-27T16:22:58.476Z,99159.97
2022-09-27T16:25:28.697Z,99159.13
2022-09-27T16:27:58.997Z,99150.22
2022-09-27T16:30:27.082Z,99150.75
2022-09-27T16:32:54.977Z,99150.75
2022-09-27T16:35:24.751Z,99146.78
2022-09-27T16:37:52.586Z,99151.47
2022-09-27T16:40:20.402Z,99143.84
2022-09-27T16:42:50.677Z,99154.28
2022-09-27T16:45:19.739Z,99147.09
2022-09-27T16:47:48.260Z,99148.66
2022-09-27T16:50:34.368Z,99154.66
2022-09-27T16:53:02.164Z,99165.53
2022-09-27T16:55:30.312Z,99170.97
2022-09-27T16:58:00.453Z,99167.25
2022-09-27T17:00:28.453Z,99181.72
2022-09-27T17:02:56.494Z,99185.00
2022-09-27T17:05:24.245Z,99180.41
2022-09-27T17:07:52.685Z,99180.47
2022-09-27T17:10:20.896Z,99176.91
2022-09-27T17:12:48.965Z,99176.66
2022-09-27T17:15:18.994Z,99169.69
2022-09-27T17:17:50.432Z,99169.69
2022-09-27T17:20:18.742Z,99174.59
2022-09-27T17:22:46.606Z,99166.16
2022-09-27T17:25:14.364Z,99171.69
2022-09-27T17:27:42.205Z,99160.00
2022-09-27T17:30:10.873Z,99158.28
2022-09-27T17:32:40.139Z,99157.38
2022-09-27T17:35:09.392Z,99166.88
2022-09-27T17:37:37.308Z,99171.47
2022-09-27T17:40:06.414Z,99169.47
2022-09-27T17:42:35.378Z,99164.16
2022-09-27T17:45:03.243Z,99167.31
2022-09-27T17:47:48.719Z,99169.75
2022-09-27T17:50:28.577Z,99173.88
2022-09-27T17:52:58.652Z,99181.72
2022-09-27T17:55:27.065Z,99179.81
2022-09-27T17:57:54.902Z,99174.59
2022-09-27T18:00:22.914Z,99172.03
2022-09-27T18:02:51.207Z,99178.19
2022-09-27T18:05:21.387Z,99171.88
2022-09-27T18:07:49.330Z,99166.56
2022-09-27T18:10:18.082Z,99176.25
2022-09-27T18:12:45.976Z,99177.19
2022-09-27T18:15:16.903Z,99186.06
2022-09-27T18:17:45.814Z,99181.63
2022-09-27T18:20:13.656Z,99183.63
2022-09-27T18:22:42.778Z,99189.09
2022-09-27T18:25:12.112Z,99182.06
2022-09-27T18:27:40.970Z,99178.41
2022-09-27T18:30:10.481Z,99187.22
2022-09-27T18:32:38.394Z,99185.44
2022-09-27T18:35:07.044Z,99194.47
2022-09-27T18:37:34.892Z,99194.41
2022-09-27T18:40:04.503Z,99195.34
2022-09-27T18:42:32.281Z,99194.28
2022-09-27T18:45:00.155Z,99190.84
2022-09-27T18:47:27.982Z,99190.97
2022-09-27T18:49:55.877Z,99196.16
2022-09-27T18:52:23.802Z,99190.03
2022-09-27T18:54:51.543Z,99188.88
2022-09-27T18:57:20.887Z,99187.25
2022-09-27T18:59:49.522Z,99188.78
2022-09-27T19:02:17.436Z,99192.28
2022-09-27T19:04:45.364Z,99194.13
2022-09-27T19:07:13.218Z,99192.78
2022-09-27T19:09:41.172Z,99199.00
2022-09-27T19:12:09.001Z,99195.78
2022-09-27T19:14:38.165Z,99198.72
2022-09-27T19:17:06.011Z,99192.94
2022-09-27T19:19:33.938Z,99194.00
2022-09-27T19:22:02.034Z,99193.94
2022-09-27T19:24:29.954Z,99188.84
2022-09-27T19:26:57.768Z,99187.97
2022-09-27T19:29:26.090Z,99192.56
2022-09-27T19:31:55.371Z,99193.56
2022-09-27T19:34:23.271Z,99192.97
2022-09-27T19:36:51.182Z,99190.47
2022-09-27T19:39:19.130Z,99194.31
2022-09-27T19:41:47.015Z,99196.16
2022-09-27T19:44:15.379Z,99191.94
2022-09-27T19:46:45.197Z,99189.56
2022-09-27T19:49:14.678Z,99189.75
2022-09-27T19:51:42.682Z,99190.75
2022-09-27T19:54:11.591Z,99198.78
2022-09-27T19:56:39.447Z,99197.03
2022-09-27T19:59:07.577Z,99192.69
2022-09-27T20:01:36.211Z,99194.75
2022-09-27T20:04:04.309Z,99196.72
2022-09-27T20:06:34.520Z,99194.09
2022-09-27T20:09:03.599Z,99191.59
2022-09-27T20:11:31.471Z,99189.16
2022-09-27T20:13:59.917Z,99189.16
2022-09-27T20:16:28.685Z,99187.34
2022-09-27T20:18:58.362Z,99182.13
2022-09-27T20:21:28.782Z,99190.13
2022-09-27T20:23:58.708Z,99193.69
2022-09-27T20:26:28.288Z,99195.38
2022-09-27T20:29:01.073Z,99199.59
2022-09-27T20:31:30.329Z,99198.59
2022-09-27T20:33:58.367Z,99198.59
2022-09-27T20:36:27.755Z,99201.03
2022-09-27T20:39:02.010Z,99197.13
2022-09-27T20:41:33.643Z,99199.66
2022-09-27T20:44:03.436Z,99194.47
2022-09-27T20:46:31.885Z,99199.66
2022-09-27T20:49:02.781Z,99196.94
2022-09-27T20:51:33.366Z,99196.78
2022-09-27T20:54:01.833Z,99195.72
2022-09-27T20:56:33.207Z,99190.34
2022-09-27T20:59:02.923Z,99205.97
2022-09-27T21:01:31.968Z,99196.22
2022-09-27T21:04:01.499Z,99198.66
2022-09-27T21:06:31.280Z,99202.88
2022-09-27T21:09:00.335Z,99205.44
2022-09-27T21:11:28.506Z,99201.81
2022-09-27T21:13:57.721Z,99197.41
2022-09-27T21:16:27.498Z,99198.25
2022-09-27T21:18:57.368Z,99200.81
2022-09-27T21:21:26.556Z,99206.84
2022-09-27T21:23:56.368Z,99201.63
2022-09-27T21:26:25.396Z,99199.97
2022-09-27T21:28:55.047Z,99198.09
2022-09-27T21:31:26.288Z,99194.53
2022-09-27T21:33:58.525Z,99190.06
2022-09-27T21:36:28.388Z,99192.72
2022-09-27T21:38:57.218Z,99196.06
2022-09-27T21:41:26.608Z,99187.50
2022-09-27T21:43:54.882Z,99189.13
2022-09-27T21:46:25.995Z,99193.50
2022-09-27T21:48:56.379Z,99194.53
2022-09-27T21:51:25.904Z,99198.03
2022-09-27T21:53:54.995Z,99199.72
2022-09-27T21:56:24.149Z,99194.59
2022-09-27T21:58:52.334Z,99200.75
2022-09-27T22:01:22.265Z,99190.53
2022-09-27T22:03:54.028Z,99188.22
2022-09-27T22:06:23.592Z,99191.88
2022-09-27T22:08:52.583Z,99192.06
2022-09-27T22:11:23.157Z,99192.22
2022-09-27T22:13:51.213Z,99188.03
2022-09-27T22:16:21.268Z,99193.53
2022-09-27T22:18:52.571Z,99194.47
2022-09-27T22:21:23.913Z,99195.28
2022-09-27T22:23:54.907Z,99199.91
2022-09-27T22:26:24.928Z,99196.47
2022-09-27T22:28:52.983Z,99196.47
2022-09-27T22:31:22.426Z,99191.25
2022-09-27T22:33:53.720Z,99189.72
2022-09-27T22:36:22.492Z,99188.13
2022-09-27T22:38:50.879Z,99182.84
2022-09-27T22:41:19.205Z,99183.91
2022-09-27T22:43:47.349Z,99183.13
2022-09-27T22:46:15.408Z,99184.25
2022-09-27T22:48:43.770Z,99178.28
2022-09-27T22:51:13.698Z,99180.16
2022-09-27T22:53:41.450Z,99182.06
2022-09-27T22:56:11.746Z,99175.19
2022-09-27T22:58:39.536Z,99168.31
2022-09-27T23:01:12.010Z,99174.72
2022-09-27T23:03:39.933Z,99179.25
2022-09-27T23:06:09.022Z,99173.19
2022-09-27T23:08:38.996Z,99167.25
2022-09-27T23:11:08.581Z,99158.63
2022-09-27T23:13:38.520Z,99152.41
2022-09-27T23:16:08.898Z,99155.19
2022-09-27T23:18:38.105Z,99169.47
2022-09-27T23:21:08.313Z,99157.66
2022-09-27T23:23:40.640Z,99164.06
2022-09-27T23:26:10.238Z,99155.19
2022-09-27T23:28:38.680Z,99164.97
2022-09-27T23:31:08.631Z,99165.97
2022-09-27T23:33:37.342Z,99159.88
2022-09-27T23:36:05.922Z,99164.31
2022-09-27T23:38:33.809Z,99160.63
2022-09-27T23:41:02.970Z,99157.72
2022-09-27T23:43:30.903Z,99149.78
2022-09-27T23:45:58.683Z,99150.53
2022-09-27T23:48:27.078Z,99137.22
2022-09-27T23:50:56.653Z,99139.19
2022-09-27T23:53:24.960Z,99142.91
2022-09-27T23:56:02.398Z,99143.03
2022-09-27T23:58:33.401Z,99143.16
